createdAt,value
2024-04-01T00:00:53.874Z,935.3146
2024-04-01T00:01:54.825Z,935.2504
2024-04-01T00:02:55.808Z,935.1862
2024-04-01T00:03:56.945Z,935.0846
2024-04-01T00:04:58.045Z,935.0070
2024-04-01T00:05:58.991Z,935.0015
2024-04-01T00:06:59.967Z,934.9815
2024-04-01T00:08:01.072Z,934.9508
2024-04-01T00:09:02.207Z,934.9096
2024-04-01T00:10:03.308Z,934.9154
2024-04-01T00:11:04.454Z,934.9927
2024-04-01T00:12:05.554Z,935.0135
2024-04-01T00:13:06.514Z,934.9865
2024-04-01T00:14:07.481Z,934.9388
2024-04-01T00:15:08.594Z,934.9446
2024-04-01T00:16:09.511Z,934.9612
2024-04-01T00:17:10.447Z,934.9066
2024-04-01T00:18:11.432Z,934.7958
2024-04-01T00:19:12.455Z,934.7554
2024-04-01T00:20:13.410Z,934.7062
2024-04-01T00:21:14.413Z,934.6681
2024-04-01T00:22:15.514Z,934.6058
2024-04-01T00:23:16.614Z,934.4861
2024-04-01T00:24:17.592Z,934.4269
2024-04-01T00:25:18.540Z,934.4304
2024-04-01T00:26:19.642Z,934.4534
2024-04-01T00:27:20.605Z,934.5200
2024-04-01T00:28:21.635Z,934.5988
2024-04-01T00:29:22.714Z,934.6550
2024-04-01T00:30:23.806Z,934.7027
2024-04-01T00:31:24.769Z,934.7154
2024-04-01T00:32:25.735Z,934.7246
2024-04-01T00:33:26.677Z,934.6846
2024-04-01T00:34:33.246Z,934.6447
2024-04-01T00:35:29.835Z,934.6550
2024-04-01T00:36:30.845Z,934.7208
2024-04-01T00:37:31.974Z,934.7620
2024-04-01T00:38:33.092Z,934.7773
2024-04-01T00:39:34.230Z,934.7327
2024-04-01T00:40:35.334Z,934.6646
2024-04-01T00:41:36.445Z,934.6185
2024-04-01T00:42:37.386Z,934.6454
2024-04-01T00:43:38.393Z,934.7423
2024-04-01T00:44:39.314Z,934.8192
2024-04-01T00:45:40.317Z,934.8289
2024-04-01T00:46:41.418Z,934.8123
2024-04-01T00:47:42.343Z,934.7612
2024-04-01T00:48:43.384Z,934.6600
2024-04-01T00:49:44.452Z,934.5511
2024-04-01T00:50:45.400Z,934.5270
2024-04-01T00:51:46.370Z,934.4846
2024-04-01T00:52:47.362Z,934.4535
2024-04-01T00:53:48.323Z,934.4581
2024-04-01T00:54:49.409Z,934.4704
2024-04-01T00:55:50.353Z,934.4415
2024-04-01T00:56:51.320Z,934.4238
2024-04-01T00:57:52.452Z,934.3615
2024-04-01T00:58:53.545Z,934.2492
2024-04-01T00:59:54.493Z,934.1192
2024-04-01T01:00:55.481Z,934.0558
2024-04-01T01:01:56.421Z,934.0304
2024-04-01T01:02:57.406Z,934.0934
2024-04-01T01:03:58.528Z,934.1639
2024-04-01T01:04:59.640Z,934.2292
2024-04-01T01:06:00.770Z,934.2550
2024-04-01T01:07:02.699Z,934.2396
2024-04-01T01:08:03.981Z,934.2450
2024-04-01T01:09:04.900Z,934.2077
2024-04-01T01:10:05.906Z,934.1581
2024-04-01T01:11:07.015Z,934.1439
2024-04-01T01:12:08.120Z,934.1546
2024-04-01T01:13:09.242Z,934.1708
2024-04-01T01:14:10.184Z,934.2673
2024-04-01T01:15:11.157Z,934.3692
2024-04-01T01:16:12.106Z,934.3770
2024-04-01T01:17:13.082Z,934.3381
2024-04-01T01:18:14.032Z,934.3404
2024-04-01T01:19:15.010Z,934.3535
2024-04-01T01:20:15.974Z,934.3504
2024-04-01T01:21:16.926Z,934.3615
2024-04-01T01:22:18.683Z,934.4034
2024-04-01T01:23:19.801Z,934.4438
2024-04-01T01:24:20.927Z,934.4803
2024-04-01T01:25:21.896Z,934.5092
2024-04-01T01:26:22.857Z,934.4654
2024-04-01T01:27:23.890Z,934.4058
2024-04-01T01:28:24.851Z,934.3596
2024-04-01T01:29:25.904Z,934.3227
2024-04-01T01:30:27.044Z,934.3181
2024-04-01T01:31:28.136Z,934.3062
2024-04-01T01:32:29.064Z,934.2346
2024-04-01T01:33:30.099Z,934.0796
2024-04-01T01:34:31.155Z,933.9646
2024-04-01T01:35:32.113Z,933.8889
2024-04-01T01:36:33.078Z,933.8546
2024-04-01T01:37:34.217Z,933.8416
2024-04-01T01:38:35.145Z,933.7904
2024-04-01T01:39:36.125Z,933.7542
2024-04-01T01:40:37.205Z,933.7446
2024-04-01T01:41:38.163Z,933.7462
2024-04-01T01:42:39.106Z,933.7657
2024-04-01T01:43:40.061Z,933.8154
2024-04-01T01:44:41.087Z,933.8069
2024-04-01T01:45:42.054Z,933.7592
2024-04-01T01:46:42.995Z,933.7542
2024-04-01T01:47:43.930Z,933.7354
2024-04-01T01:48:44.921Z,933.7385
2024-04-01T01:49:46.044Z,933.7750
2024-04-01T01:50:47.012Z,933.7935
2024-04-01T01:51:47.968Z,933.8173
2024-04-01T01:52:49.057Z,933.8735
2024-04-01T01:53:49.979Z,933.8788
2024-04-01T01:54:50.980Z,933.8439
2024-04-01T01:55:51.946Z,933.8746
2024-04-01T01:56:52.923Z,933.9604
2024-04-01T01:57:53.885Z,934.1177
2024-04-01T01:58:54.844Z,934.1808
2024-04-01T01:59:55.813Z,934.1508
2024-04-01T02:00:56.752Z,934.0873
2024-04-01T02:01:57.981Z,934.0558
2024-04-01T02:02:58.987Z,933.9557
2024-04-01T02:04:00.127Z,933.9054
2024-04-01T02:05:01.087Z,933.9131
2024-04-01T02:06:02.062Z,933.9619
2024-04-01T02:07:02.973Z,933.9204
2024-04-01T02:08:04.007Z,933.8177
2024-04-01T02:09:04.909Z,933.7335
2024-04-01T02:10:05.907Z,933.7169
2024-04-01T02:11:07.001Z,933.7620
2024-04-01T02:12:07.959Z,933.7792
2024-04-01T02:13:08.934Z,933.8019
2024-04-01T02:14:10.058Z,933.7816
2024-04-01T02:15:11.152Z,933.7481
2024-04-01T02:16:12.118Z,933.6677
2024-04-01T02:17:13.106Z,933.6469
2024-04-01T02:18:14.197Z,933.6292
2024-04-01T02:19:15.155Z,933.6561
2024-04-01T02:20:16.121Z,933.7327
2024-04-01T02:21:17.228Z,933.8250
2024-04-01T02:22:18.152Z,933.8523
2024-04-01T02:23:19.159Z,933.8593
2024-04-01T02:24:20.225Z,933.9039
2024-04-01T02:25:21.187Z,933.9315
2024-04-01T02:26:22.230Z,933.8712
2024-04-01T02:27:23.338Z,933.8093
2024-04-01T02:28:24.472Z,933.7754
2024-04-01T02:29:25.710Z,933.7877
2024-04-01T02:30:26.729Z,933.8297
2024-04-01T02:31:27.872Z,933.8553
2024-04-01T02:32:28.923Z,933.8604
2024-04-01T02:33:29.893Z,933.8208
2024-04-01T02:34:30.880Z,933.8104
2024-04-01T02:35:31.953Z,933.8611
2024-04-01T02:36:34.722Z,933.9327
2024-04-01T02:37:33.740Z,933.9944
2024-04-01T02:38:34.685Z,934.0554
2024-04-01T02:39:35.606Z,934.0916
2024-04-01T02:40:36.606Z,934.1404
2024-04-01T02:41:37.721Z,934.1623
2024-04-01T02:42:38.695Z,934.1442
2024-04-01T02:43:39.640Z,934.1192
2024-04-01T02:44:40.763Z,934.1192
2024-04-01T02:45:41.888Z,934.1354
2024-04-01T02:46:42.833Z,934.1785
2024-04-01T02:47:43.804Z,934.2238
2024-04-01T02:48:44.733Z,934.2477
2024-04-01T02:49:45.731Z,934.2515
2024-04-01T02:50:46.781Z,934.2808
2024-04-01T02:51:47.713Z,934.3158
2024-04-01T02:52:48.778Z,934.3661
2024-04-01T02:53:49.891Z,934.4104
2024-04-01T02:54:51.006Z,934.4280
2024-04-01T02:55:51.964Z,934.4392
2024-04-01T02:56:52.924Z,934.4646
2024-04-01T02:57:53.862Z,934.4715
2024-04-01T02:58:54.846Z,934.4711
2024-04-01T02:59:55.963Z,934.5123
2024-04-01T03:00:57.059Z,934.5638
2024-04-01T03:01:58.050Z,934.5770
2024-04-01T03:02:59.024Z,934.5712
2024-04-01T03:04:00.060Z,934.5508
2024-04-01T03:05:01.038Z,934.5415
2024-04-01T03:06:02.040Z,934.5358
2024-04-01T03:07:03.011Z,934.5961
2024-04-01T03:08:04.959Z,934.6054
2024-04-01T03:09:06.044Z,934.5215
2024-04-01T03:10:07.166Z,934.6258
2024-04-01T03:11:08.130Z,934.7750
2024-04-01T03:12:09.072Z,934.7562
2024-04-01T03:13:10.034Z,934.7208
2024-04-01T03:14:10.998Z,934.8019
2024-04-01T03:15:12.131Z,934.8431
2024-04-01T03:16:13.243Z,934.7346
2024-04-01T03:17:14.344Z,934.6927
2024-04-01T03:18:15.455Z,934.7766
2024-04-01T03:19:16.405Z,934.7923
2024-04-01T03:20:17.405Z,934.8823
2024-04-01T03:21:18.321Z,935.0385
2024-04-01T03:22:19.331Z,935.0765
2024-04-01T03:23:20.480Z,935.0419
2024-04-01T03:24:21.374Z,935.0427
2024-04-01T03:25:22.389Z,935.0854
2024-04-01T03:26:23.474Z,935.0954
2024-04-01T03:27:24.615Z,935.1230
2024-04-01T03:28:25.743Z,935.1412
2024-04-01T03:29:26.851Z,935.1673
2024-04-01T03:30:28.123Z,935.2081
2024-04-01T03:31:29.073Z,935.2184
2024-04-01T03:32:30.201Z,935.2035
2024-04-01T03:33:31.271Z,935.2189
2024-04-01T03:34:32.382Z,935.2996
2024-04-01T03:35:33.344Z,935.4069
2024-04-01T03:36:34.361Z,935.4761
2024-04-01T03:37:35.501Z,935.4935
2024-04-01T03:38:36.602Z,935.4969
2024-04-01T03:39:37.718Z,935.5350
2024-04-01T03:40:38.832Z,935.5984
2024-04-01T03:41:40.729Z,935.7139
2024-04-01T03:42:42.042Z,935.7988
2024-04-01T03:43:43.194Z,935.9131
2024-04-01T03:44:44.299Z,936.0334
2024-04-01T03:45:45.412Z,936.1531
2024-04-01T03:46:46.523Z,936.2161
2024-04-01T03:47:47.610Z,936.2142
2024-04-01T03:48:48.763Z,936.2057
2024-04-01T03:49:49.883Z,936.1838
2024-04-01T03:50:50.985Z,936.2308
2024-04-01T03:51:52.115Z,936.2723
2024-04-01T03:52:53.248Z,936.2862
2024-04-01T03:53:54.290Z,936.2985
2024-04-01T03:54:55.503Z,936.3073
2024-04-01T03:55:56.570Z,936.3781
2024-04-01T03:56:57.721Z,936.4754
2024-04-01T03:57:58.834Z,936.5746
2024-04-01T03:58:59.959Z,936.6069
2024-04-01T04:00:01.047Z,936.5815
2024-04-01T04:01:02.206Z,936.5453
2024-04-01T04:02:03.330Z,936.5681
2024-04-01T04:03:04.458Z,936.6407
2024-04-01T04:04:05.546Z,936.6958
2024-04-01T04:05:06.696Z,936.7338
2024-04-01T04:06:07.816Z,936.7253
2024-04-01T04:07:08.979Z,936.7012
2024-04-01T04:08:10.020Z,936.7211
2024-04-01T04:09:11.175Z,936.8038
2024-04-01T04:10:12.287Z,936.8854
2024-04-01T04:11:13.386Z,936.9319
2024-04-01T04:12:14.518Z,936.9688
2024-04-01T04:13:15.691Z,936.9731
2024-04-01T04:14:16.767Z,936.9738
2024-04-01T04:15:17.887Z,936.9370
2024-04-01T04:16:19.012Z,936.9088
2024-04-01T04:17:20.133Z,936.9438
2024-04-01T04:18:21.256Z,937.0588
2024-04-01T04:19:22.372Z,937.1638
2024-04-01T04:20:23.490Z,937.2581
2024-04-01T04:21:24.624Z,937.3019
2024-04-01T04:22:25.734Z,937.3450
2024-04-01T04:23:26.858Z,937.3242
2024-04-01T04:24:27.985Z,937.3719
2024-04-01T04:25:29.116Z,937.4473
2024-04-01T04:26:30.202Z,937.5511
2024-04-01T04:27:31.359Z,937.5658
2024-04-01T04:28:32.441Z,937.6458
2024-04-01T04:29:33.601Z,937.7684
2024-04-01T04:30:34.689Z,937.8458
2024-04-01T04:31:35.798Z,937.9235
2024-04-01T04:32:36.889Z,938.0592
2024-04-01T04:33:38.042Z,938.0219
2024-04-01T04:34:39.154Z,938.0511
2024-04-01T04:35:40.286Z,938.1011
2024-04-01T04:36:41.399Z,938.2012
2024-04-01T04:37:42.566Z,938.2519
2024-04-01T04:38:43.607Z,938.3431
2024-04-01T04:39:44.723Z,938.3835
2024-04-01T04:40:45.886Z,938.4108
2024-04-01T04:41:47.030Z,938.3265
2024-04-01T04:42:48.121Z,938.3093
2024-04-01T04:43:49.240Z,938.3619
2024-04-01T04:44:50.364Z,938.4785
2024-04-01T04:45:51.516Z,938.4723
2024-04-01T04:46:52.580Z,938.4742
2024-04-01T04:47:53.764Z,938.4462
2024-04-01T04:48:54.840Z,938.3300
2024-04-01T04:49:55.972Z,938.2911
2024-04-01T04:50:57.034Z,938.2446
2024-04-01T04:51:58.002Z,938.2454
2024-04-01T04:52:59.021Z,938.3154
2024-04-01T04:54:00.160Z,938.4377
2024-04-01T04:55:01.251Z,938.4669
2024-04-01T04:56:02.365Z,938.5077
2024-04-01T04:57:03.475Z,938.5377
2024-04-01T04:58:04.613Z,938.5538
2024-04-01T04:59:05.727Z,938.6200
2024-04-01T05:00:06.852Z,938.6512
2024-04-01T05:01:07.987Z,938.6358
2024-04-01T05:02:09.081Z,938.5854
2024-04-01T05:03:10.172Z,938.6108
2024-04-01T05:04:11.313Z,938.5712
2024-04-01T05:05:12.463Z,938.5488
2024-04-01T05:06:13.517Z,938.5654
2024-04-01T05:07:14.541Z,938.6646
2024-04-01T05:08:15.486Z,938.7435
2024-04-01T05:09:16.601Z,938.7742
2024-04-01T05:10:17.753Z,938.7542
2024-04-01T05:11:18.845Z,938.6631
2024-04-01T05:12:19.965Z,938.6392
2024-04-01T05:13:21.086Z,938.7500
2024-04-01T05:14:22.174Z,938.8170
2024-04-01T05:15:23.286Z,938.8250
2024-04-01T05:16:24.443Z,938.7762
2024-04-01T05:17:25.565Z,938.7792
2024-04-01T05:18:26.651Z,938.7742
2024-04-01T05:19:27.803Z,938.8008
2024-04-01T05:20:28.945Z,938.8712
2024-04-01T05:21:30.033Z,938.8535
2024-04-01T05:22:31.112Z,938.8396
2024-04-01T05:23:32.270Z,938.7839
2024-04-01T05:24:33.243Z,938.7938
2024-04-01T05:25:34.266Z,938.8185
2024-04-01T05:26:35.337Z,938.8792
2024-04-01T05:27:36.438Z,938.9658
2024-04-01T05:28:37.562Z,939.0427
2024-04-01T05:29:38.682Z,939.1492
2024-04-01T05:30:39.822Z,939.2550
2024-04-01T05:31:40.913Z,939.2842
2024-04-01T05:32:42.113Z,939.3615
2024-04-01T05:33:43.206Z,939.4388
2024-04-01T05:34:44.293Z,939.4754
2024-04-01T05:35:45.402Z,939.4819
2024-04-01T05:36:46.542Z,939.5208
2024-04-01T05:37:47.628Z,939.5739
2024-04-01T05:38:48.726Z,939.5508
2024-04-01T05:39:49.877Z,939.5642
2024-04-01T05:40:51.007Z,939.5916
2024-04-01T05:41:52.082Z,939.5685
2024-04-01T05:42:53.252Z,939.4893
2024-04-01T05:43:54.373Z,939.4769
2024-04-01T05:44:55.492Z,939.4500
2024-04-01T05:45:56.600Z,939.4135
2024-04-01T05:46:57.745Z,939.3835
2024-04-01T05:47:58.839Z,939.4008
2024-04-01T05:48:59.965Z,939.4377
2024-04-01T05:50:01.079Z,939.3773
2024-04-01T05:51:02.211Z,939.2931
2024-04-01T05:52:03.318Z,939.2931
2024-04-01T05:53:04.421Z,939.3100
2024-04-01T05:54:05.588Z,939.3192
2024-04-01T05:55:06.692Z,939.3300
2024-04-01T05:56:07.756Z,939.3412
2024-04-01T05:57:08.916Z,939.3342
2024-04-01T05:58:10.014Z,939.3400
2024-04-01T05:59:11.178Z,939.3354
2024-04-01T06:00:12.280Z,939.3611
2024-04-01T06:01:13.404Z,939.4123
2024-04-01T06:02:14.546Z,939.4581
2024-04-01T06:03:15.691Z,939.4446
2024-04-01T06:04:16.776Z,939.4331
2024-04-01T06:05:17.850Z,939.4173
2024-04-01T06:06:18.992Z,939.3915
2024-04-01T06:07:20.133Z,939.3869
2024-04-01T06:08:21.237Z,939.3923
2024-04-01T06:09:22.344Z,939.4496
2024-04-01T06:10:23.485Z,939.5042
2024-04-01T06:11:24.629Z,939.5543
2024-04-01T06:12:25.676Z,939.6169
2024-04-01T06:13:26.838Z,939.6315
2024-04-01T06:14:29.510Z,939.6804
2024-04-01T06:15:29.375Z,939.7000
2024-04-01T06:16:30.556Z,939.7319
2024-04-01T06:17:31.657Z,939.7504
2024-04-01T06:18:32.671Z,939.7542
2024-04-01T06:19:33.731Z,939.8088
2024-04-01T06:20:34.683Z,939.8373
2024-04-01T06:21:35.822Z,939.8212
2024-04-01T06:22:36.941Z,939.8384
2024-04-01T06:23:38.040Z,939.8661
2024-04-01T06:24:39.161Z,939.8669
2024-04-01T06:25:40.296Z,939.9034
2024-04-01T06:26:41.539Z,940.0100
2024-04-01T06:27:42.595Z,940.2065
2024-04-01T06:28:43.641Z,940.4081
2024-04-01T06:29:44.716Z,940.5046
2024-04-01T06:30:45.965Z,940.4031
2024-04-01T06:31:46.971Z,940.4711
2024-04-01T06:32:48.132Z,940.5827
2024-04-01T06:33:49.237Z,940.7046
2024-04-01T06:34:50.359Z,940.7769
2024-04-01T06:35:51.511Z,940.6804
2024-04-01T06:36:52.600Z,940.6850
2024-04-01T06:37:53.743Z,940.7488
2024-04-01T06:38:54.846Z,940.8873
2024-04-01T06:39:55.978Z,940.9696
2024-04-01T06:40:57.080Z,940.9965
2024-04-01T06:41:58.205Z,940.9788
2024-04-01T06:42:59.306Z,940.9489
2024-04-01T06:44:00.453Z,940.8765
2024-04-01T06:45:01.578Z,940.8488
2024-04-01T06:46:02.662Z,940.8885
2024-04-01T06:47:03.801Z,941.0007
2024-04-01T06:48:04.921Z,941.2112
2024-04-01T06:49:06.045Z,941.4312
2024-04-01T06:50:07.172Z,941.5827
2024-04-01T06:51:08.285Z,941.6354
2024-04-01T06:52:09.418Z,941.5385
2024-04-01T06:53:10.515Z,941.4296
2024-04-01T06:54:11.671Z,941.3058
2024-04-01T06:55:12.771Z,941.4738
2024-04-01T06:56:13.895Z,941.6254
2024-04-01T06:57:15.003Z,941.7485
2024-04-01T06:58:16.191Z,941.6534
2024-04-01T06:59:17.216Z,941.5688
2024-04-01T07:00:18.383Z,941.5515
2024-04-01T07:01:19.485Z,941.5877
2024-04-01T07:02:20.555Z,941.5854
2024-04-01T07:03:21.725Z,941.5800
2024-04-01T07:04:22.819Z,941.5862
2024-04-01T07:05:23.968Z,941.5850
2024-04-01T07:06:25.093Z,941.6869
2024-04-01T07:07:26.044Z,941.8065
2024-04-01T07:08:27.094Z,941.8300
2024-04-01T07:09:28.132Z,941.8696
2024-04-01T07:10:29.289Z,941.8892
2024-04-01T07:11:30.368Z,941.8265
2024-04-01T07:12:31.495Z,941.8334
2024-04-01T07:13:32.654Z,941.8069
2024-04-01T07:14:33.726Z,941.7261
2024-04-01T07:15:34.863Z,941.7319
2024-04-01T07:16:35.976Z,941.7919
2024-04-01T07:17:37.105Z,941.7919
2024-04-01T07:18:38.198Z,941.7562
2024-04-01T07:19:39.272Z,941.7812
2024-04-01T07:20:40.496Z,941.8312
2024-04-01T07:21:41.519Z,941.9004
2024-04-01T07:22:42.543Z,941.9631
2024-04-01T07:23:43.563Z,941.9512
2024-04-01T07:24:44.617Z,941.9950
2024-04-01T07:25:45.737Z,942.0250
2024-04-01T07:26:46.846Z,942.0927
2024-04-01T07:27:48.088Z,942.1123
2024-04-01T07:28:49.084Z,942.1000
2024-04-01T07:29:50.260Z,942.1077
2024-04-01T07:30:51.319Z,941.9377
2024-04-01T07:31:52.436Z,941.9296
2024-04-01T07:32:55.062Z,941.9877
2024-04-01T07:33:54.056Z,942.0896
2024-04-01T07:34:55.167Z,942.1304
2024-04-01T07:35:56.285Z,942.0954
2024-04-01T07:36:57.402Z,942.0966
2024-04-01T07:37:58.627Z,942.1196
2024-04-01T07:38:59.709Z,942.2254
2024-04-01T07:40:00.770Z,942.2573
2024-04-01T07:41:01.893Z,942.2485
2024-04-01T07:42:03.013Z,942.2531
2024-04-01T07:43:04.124Z,942.2430
2024-04-01T07:44:05.244Z,942.2923
2024-04-01T07:45:06.364Z,942.3231
2024-04-01T07:46:07.544Z,942.2923
2024-04-01T07:47:08.619Z,942.2866
2024-04-01T07:48:09.786Z,942.2604
2024-04-01T07:49:10.903Z,942.2134
2024-04-01T07:50:11.987Z,942.2089
2024-04-01T07:51:13.083Z,942.1973
2024-04-01T07:52:14.268Z,942.2166
2024-04-01T07:53:16.360Z,942.2808
2024-04-01T07:54:16.461Z,942.3200
2024-04-01T07:55:17.639Z,942.3627
2024-04-01T07:56:18.738Z,942.3896
2024-04-01T07:57:19.820Z,942.3708
2024-04-01T07:58:20.944Z,942.3877
2024-04-01T07:59:22.115Z,942.3346
2024-04-01T08:00:23.170Z,942.3484
2024-04-01T08:01:24.272Z,942.3466
2024-04-01T08:02:25.410Z,942.3643
2024-04-01T08:03:26.583Z,942.3746
2024-04-01T08:04:27.684Z,942.3912
2024-04-01T08:05:28.823Z,942.4273
2024-04-01T08:06:29.916Z,942.4562
2024-04-01T08:07:31.013Z,942.4554
2024-04-01T08:08:32.184Z,942.5177
2024-04-01T08:09:33.299Z,942.4388
2024-04-01T08:10:34.381Z,942.4246
2024-04-01T08:11:35.547Z,942.4116
2024-04-01T08:12:36.618Z,942.4077
2024-04-01T08:13:37.750Z,942.4111
2024-04-01T08:14:38.913Z,942.4589
2024-04-01T08:15:39.971Z,942.5008
2024-04-01T08:16:41.102Z,942.5273
2024-04-01T08:17:42.257Z,942.6050
2024-04-01T08:18:43.346Z,942.6439
2024-04-01T08:19:44.500Z,942.6754
2024-04-01T08:20:45.624Z,942.6831
2024-04-01T08:21:46.699Z,942.6873
2024-04-01T08:22:47.818Z,942.6942
2024-04-01T08:23:48.987Z,942.6877
2024-04-01T08:24:50.050Z,942.7946
2024-04-01T08:25:51.244Z,942.8289
2024-04-01T08:26:52.303Z,942.9546
2024-04-01T08:27:53.372Z,943.0070
2024-04-01T08:28:54.595Z,942.9835
2024-04-01T08:29:55.673Z,943.0308
2024-04-01T08:30:56.829Z,943.0800
2024-04-01T08:31:57.898Z,943.0927
2024-04-01T08:32:59.025Z,943.1123
2024-04-01T08:34:00.149Z,943.1208
2024-04-01T08:35:01.248Z,943.1892
2024-04-01T08:36:02.421Z,943.2696
2024-04-01T08:37:03.452Z,943.2861
2024-04-01T08:38:04.652Z,943.2427
2024-04-01T08:39:05.729Z,943.1681
2024-04-01T08:40:06.896Z,943.1865
2024-04-01T08:41:08.022Z,943.2954
2024-04-01T08:42:09.105Z,943.2915
2024-04-01T08:43:10.260Z,943.3792
2024-04-01T08:44:11.375Z,943.4423
2024-04-01T08:45:12.493Z,943.5077
2024-04-01T08:46:13.606Z,943.4696
2024-04-01T08:47:14.719Z,943.5404
2024-04-01T08:48:15.836Z,943.5157
2024-04-01T08:49:16.971Z,943.4666
2024-04-01T08:50:18.109Z,943.4930
2024-04-01T08:51:19.228Z,943.6208
2024-04-01T08:52:20.348Z,943.6500
2024-04-01T08:53:21.450Z,943.7104
2024-04-01T08:54:22.545Z,943.7558
2024-04-01T08:55:23.655Z,943.7319
2024-04-01T08:56:24.754Z,943.7323
2024-04-01T08:57:25.878Z,943.7242
2024-04-01T08:58:27.081Z,943.7346
2024-04-01T08:59:28.122Z,943.6892
2024-04-01T09:00:29.272Z,943.6500
2024-04-01T09:01:30.419Z,943.6150
2024-04-01T09:02:31.536Z,943.5493
2024-04-01T09:03:32.656Z,943.5042
2024-04-01T09:04:33.756Z,943.5358
2024-04-01T09:05:34.950Z,943.5635
2024-04-01T09:06:35.983Z,943.6246
2024-04-01T09:07:37.182Z,943.7292
2024-04-01T09:08:38.269Z,943.7938
2024-04-01T09:09:39.324Z,943.8762
2024-04-01T09:10:40.599Z,943.8581
2024-04-01T09:11:41.736Z,943.8939
2024-04-01T09:12:42.841Z,943.9304
2024-04-01T09:13:43.942Z,944.0242
2024-04-01T09:14:45.216Z,944.0054
2024-04-01T09:15:46.428Z,944.0269
2024-04-01T09:16:47.559Z,943.9589
2024-04-01T09:17:48.599Z,943.9711
2024-04-01T09:18:49.774Z,943.9539
2024-04-01T09:19:50.838Z,943.9634
2024-04-01T09:20:52.025Z,944.0054
2024-04-01T09:21:53.157Z,944.0535
2024-04-01T09:22:54.254Z,944.0369
2024-04-01T09:23:56.107Z,944.0404
2024-04-01T09:24:55.836Z,944.0260
2024-04-01T09:25:56.961Z,944.0184
2024-04-01T09:26:58.137Z,943.9858
2024-04-01T09:27:59.194Z,944.0181
2024-04-01T09:29:00.338Z,944.0369
2024-04-01T09:30:01.468Z,944.0423
2024-04-01T09:31:02.560Z,944.0769
2024-04-01T09:32:03.687Z,944.1296
2024-04-01T09:33:04.823Z,944.1873
2024-04-01T09:34:05.908Z,944.1880
2024-04-01T09:35:07.015Z,944.1923
2024-04-01T09:36:08.133Z,944.2004
2024-04-01T09:37:09.297Z,944.2123
2024-04-01T09:38:10.372Z,944.2508
2024-04-01T09:39:11.551Z,944.3146
2024-04-01T09:40:12.653Z,944.3593
2024-04-01T09:41:13.753Z,944.3800
2024-04-01T09:42:14.899Z,944.4281
2024-04-01T09:43:15.985Z,944.4515
2024-04-01T09:44:17.095Z,944.4696
2024-04-01T09:45:18.242Z,944.5058
2024-04-01T09:46:19.349Z,944.5692
2024-04-01T09:47:20.540Z,944.5927
2024-04-01T09:48:21.311Z,944.5684
2024-04-01T09:49:22.475Z,944.6061
2024-04-01T09:50:23.576Z,944.6135
2024-04-01T09:51:24.863Z,944.6627
2024-04-01T09:52:26.042Z,944.6815
2024-04-01T09:53:27.088Z,944.7400
2024-04-01T09:54:28.283Z,944.7458
2024-04-01T09:55:29.512Z,944.7816
2024-04-01T09:56:30.678Z,944.8023
2024-04-01T09:57:36.648Z,944.8120
2024-04-01T09:58:31.809Z,944.8361
2024-04-01T09:59:33.036Z,944.8754
2024-04-01T10:00:34.096Z,944.8996
2024-04-01T10:01:35.180Z,944.9066
2024-04-01T10:02:36.368Z,944.9119
2024-04-01T10:03:39.323Z,944.9196
2024-04-01T10:04:38.620Z,944.9400
2024-04-01T10:05:39.734Z,944.9512
2024-04-01T10:06:40.855Z,944.9650
2024-04-01T10:07:42.061Z,944.9823
2024-04-01T10:08:43.082Z,944.9988
2024-04-01T10:09:44.215Z,945.0346
2024-04-01T10:10:45.356Z,945.0688
2024-04-01T10:11:46.498Z,945.1054
2024-04-01T10:12:47.531Z,945.0900
2024-04-01T10:13:48.632Z,945.1180
2024-04-01T10:14:49.672Z,945.1642
2024-04-01T10:15:51.388Z,945.1492
2024-04-01T10:16:52.634Z,945.1561
2024-04-01T10:17:53.694Z,945.1761
2024-04-01T10:18:54.793Z,945.1923
2024-04-01T10:19:55.895Z,945.1927
2024-04-01T10:20:56.981Z,945.1761
2024-04-01T10:21:58.101Z,945.1815
2024-04-01T10:22:59.186Z,945.1462
2024-04-01T10:24:00.283Z,945.1292
2024-04-01T10:25:01.346Z,945.1254
2024-04-01T10:26:04.055Z,945.1200
2024-04-01T10:27:03.744Z,945.1504
2024-04-01T10:28:04.863Z,945.1454
2024-04-01T10:29:05.959Z,945.1561
2024-04-01T10:30:07.087Z,945.2039
2024-04-01T10:31:08.181Z,945.2285
2024-04-01T10:32:09.307Z,945.2480
2024-04-01T10:33:10.397Z,945.3035
2024-04-01T10:34:11.485Z,945.3300
2024-04-01T10:35:12.598Z,945.3946
2024-04-01T10:36:23.650Z,945.4308
2024-04-01T10:37:15.969Z,945.4612
2024-04-01T10:38:17.073Z,945.5035
2024-04-01T10:39:18.209Z,945.4800
2024-04-01T10:40:19.287Z,945.5296
2024-04-01T10:41:20.307Z,945.5542
2024-04-01T10:42:21.382Z,945.5847
2024-04-01T10:43:22.461Z,945.6073
2024-04-01T10:44:23.580Z,945.6608
2024-04-01T10:45:24.703Z,945.6723
2024-04-01T10:46:26.583Z,945.6996
2024-04-01T10:47:26.168Z,945.7652
2024-04-01T10:48:27.236Z,945.7550
2024-04-01T10:49:28.348Z,945.7700
2024-04-01T10:50:29.418Z,945.7927
2024-04-01T10:51:30.480Z,945.8177
2024-04-01T10:52:31.596Z,945.8504
2024-04-01T10:53:32.699Z,945.8585
2024-04-01T10:54:33.803Z,945.8439
2024-04-01T10:55:34.924Z,945.8377
2024-04-01T10:56:35.984Z,945.8692
2024-04-01T10:57:37.075Z,945.8673
2024-04-01T10:58:38.176Z,945.8723
2024-04-01T10:59:39.285Z,945.8946
2024-04-01T11:00:40.405Z,945.8973
2024-04-01T11:01:41.516Z,945.9146
2024-04-01T11:02:42.584Z,945.9304
2024-04-01T11:03:43.655Z,945.9577
2024-04-01T11:04:44.735Z,945.9550
2024-04-01T11:05:45.810Z,945.9781
2024-04-01T11:06:46.951Z,945.9915
2024-04-01T11:07:48.064Z,946.0104
2024-04-01T11:08:49.178Z,946.0242
2024-04-01T11:09:50.255Z,946.0269
2024-04-01T11:10:51.337Z,946.0289
2024-04-01T11:11:52.447Z,946.0535
2024-04-01T11:12:53.529Z,946.0727
2024-04-01T11:13:54.621Z,946.0538
2024-04-01T11:14:56.721Z,946.0742
2024-04-01T11:15:57.839Z,946.1292
2024-04-01T11:16:58.953Z,946.1473
2024-04-01T11:18:00.184Z,946.1623
2024-04-01T11:19:01.269Z,946.2050
2024-04-01T11:20:02.384Z,946.2388
2024-04-01T11:21:03.435Z,946.2589
2024-04-01T11:22:04.548Z,946.3008
2024-04-01T11:23:05.597Z,946.3307
2024-04-01T11:24:06.686Z,946.3542
2024-04-01T11:25:07.801Z,946.3481
2024-04-01T11:26:08.902Z,946.3865
2024-04-01T11:27:10.031Z,946.4412
2024-04-01T11:28:11.118Z,946.4819
2024-04-01T11:29:12.193Z,946.4923
2024-04-01T11:30:13.310Z,946.4985
2024-04-01T11:31:14.388Z,946.5523
2024-04-01T11:32:15.517Z,946.5685
2024-04-01T11:33:18.848Z,946.5862
2024-04-01T11:34:17.794Z,946.6040
2024-04-01T11:35:18.825Z,946.6108
2024-04-01T11:36:19.931Z,946.6100
2024-04-01T11:37:21.027Z,946.6046
2024-04-01T11:38:22.102Z,946.6215
2024-04-01T11:39:23.202Z,946.6292
2024-04-01T11:40:24.280Z,946.6304
2024-04-01T11:41:25.389Z,946.5969
2024-04-01T11:42:26.496Z,946.5835
2024-04-01T11:43:27.602Z,946.5677
2024-04-01T11:44:30.865Z,946.5735
2024-04-01T11:45:31.020Z,946.5842
2024-04-01T11:46:32.107Z,946.5831
2024-04-01T11:47:33.213Z,946.6031
2024-04-01T11:48:34.353Z,946.6019
2024-04-01T11:49:35.436Z,946.6077
2024-04-01T11:50:36.586Z,946.6230
2024-04-01T11:51:38.688Z,946.6146
2024-04-01T11:52:39.802Z,946.6223
2024-04-01T11:53:40.947Z,946.6327
2024-04-01T11:54:42.089Z,946.6154
2024-04-01T11:55:43.464Z,946.6504
2024-04-01T11:56:44.588Z,946.6427
2024-04-01T11:57:45.746Z,946.6161